x

Halibut Bank (46146) Wave Buoy

11:00pm - Thu 5th May 2016 All times are PDT. -7 hours from GMT.

  • Sig Wave height 1.3ft
  • Peak Period 3s
  • Wind
    16mph, 20mph gusts
  • Sea Temp 55°f
  • 空気 Temp 77°f
  • Sea Pressure 1017.8mb
  • Halibut Bank
  • Halibut Bank

More Historic Weather Station data

Upgrade to MSW Pro to gain access to the past 30 days of data for over 8000 Wavebouys and Weather Stations around the globe.

Join Pro

Comparision Forecast

View Surf forecast
   
Thu 05/05 11:00pm 1.3ft 3s 16 20 mph 1017.8mb 55f 77f
10:00pm 1.3ft 3s 16 18 mph 1017.7mb 55f 78f
9:00pm 1.3ft 3s 16 18 mph 1017.5mb 54f 78f
8:00pm 1.3ft 3s 18 20 mph 1016.7mb 55f 77f
7:00pm 1.6ft 3s 16 18 mph 1016.1mb 55f 76f
6:00pm 1.6ft 3s 18 20 mph 1016mb 55f 73f
5:00pm 2ft 4s 18 20 mph 1016.1mb 55f 76f
4:00pm 2ft 4s 18 22 mph 1016.1mb 55f 75f
3:00pm 2.5ft 4s 18 22 mph 1016.8mb 55f 76f
2:00pm 2.5ft 4s 18 22 mph 1017.4mb 55f 77f
1:00pm 2.5ft 4s 18 22 mph 1018mb 55f 73f
12:00pm 3ft 4s 20 25 mph 1018.5mb 55f 71f
11:00am 3ft 4s 20 25 mph 1018.6mb 54f 72f
10:00am 3ft 4s 20 25 mph 1018.5mb 55f 71f
9:00am 3ft 4s 18 20 mph 1018.6mb 55f 71f
8:00am 3ft 4s 18 20 mph 1018.2mb 55f 72f
7:00am 2.5ft 5s 18 22 mph 1017.8mb 55f 70f
6:00am 2.5ft 4s 18 22 mph 1017.5mb 55f 68f
5:00am 2.5ft 4s 18 20 mph 1017.1mb 55f 69f
4:00am 3ft 4s 18 22 mph 1016.8mb 55f 71f
3:00am 3ft 4s 18 20 mph 1016.5mb 55f 71f
2:00am 2.5ft 4s 20 22 mph 1016.5mb 55f 71f
1:00am 2ft 4s 18 22 mph 1016.4mb 55f 71f
12:00am 1.6ft 3s 20 22 mph 1016.1mb 56f 73f
Wed 05/04 11:00pm 1.3ft 3s 13 18 mph 1016.1mb 56f 75f
10:00pm 1ft 3s 13 16 mph 1016.1mb 56f 75f
9:00pm 1.3ft 3s 13 16 mph 1015.7mb 56f 75f
8:00pm 1.6ft 3s 13 18 mph 1015.3mb 56f 73f
7:00pm 1.6ft 3s 18 20 mph 1014.9mb 56f 72f
6:00pm 2ft 3s 16 18 mph 1015.4mb 56f 73f
5:00pm 2ft 4s 16 18 mph 1016mb 56f 75f
4:00pm 2.5ft 4s 11 13 mph 1016.5mb 56f 72f
3:00pm 2.5ft 4s 16 18 mph 1016.9mb 56f 75f
2:00pm 2.5ft 4s 16 18 mph 1017.5mb 56f 72f
1:00pm 3ft 4s 18 20 mph 1017.8mb 55f 71f
12:00pm 3.5ft 5s 18 20 mph 1018.5mb 55f 74f
11:00am 3.5ft 5s 18 22 mph 1018.7mb 55f 74f
10:00am 3.5ft 4s 20 25 mph 1018.4mb 56f 66f
9:00am 3.5ft 5s 25 29 mph 1018.4mb 56f 72f
8:00am 3.5ft 5s 25 29 mph 1018.5mb 56f 63f
7:00am 4ft 5s 25 29 mph 1018.3mb 56f 63f
6:00am 4ft 5s 25 31 mph 1018.2mb 56f 70f
5:00am 4ft 4s 27 31 mph 1018.1mb 56f 69f
4:00am 4ft 5s 25 31 mph 1018.3mb 56f 70f
3:00am 3.5ft 4s 25 29 mph 1018.3mb 56f 69f
2:00am 3ft 4s 25 27 mph 1018.7mb 56f 69f
1:00am 1.6ft 4s 16 18 mph 1019.1mb 56f 70f
12:00am 2ft 4s 13 18 mph 1019.3mb 56f 70f
Tue 05/03 11:00pm 1.6ft 3s 22 25 mph 1018.6mb 57f 67f
10:00pm 0.7ft 3s 13 16 mph 1018.6mb 58f 74f
9:00pm 0.7ft 6s 9 11 mph 1018.2mb 59f 74f
8:00pm 0.7ft 2s 9 11 mph 1017.7mb 59f 66f
7:00pm 0.7ft 3s 11 13 mph 1017.2mb 60f 77f
6:00pm 1.3ft 3s 7 9 mph 1017.1mb 59f 78f
5:00pm 1.3ft 3s 13 16 mph 1017.1mb 59f 74f
4:00pm 1.3ft 3s 16 18 mph 1016.8mb 58f 76f
3:00pm 1ft 3s 18 20 mph 1016.9mb 58f 76f
2:00pm 1ft 3s 16 18 mph 1017mb 59f 76f
1:00pm 1.3ft 3s 13
mph
1016.9mb 59f 71f
12:00pm 1.3ft 3s 13 16 mph 1017mb 57f 73f
11:00am 1ft 2s 13 16 mph 1016.9mb 57f 73f
10:00am 1ft 2s 11 16 mph 1016.9mb 57f 74f
9:00am 0.3ft 2s 13 16 mph 1016.7mb 57f 71f
8:00am 0.7ft 2s 9 11 mph 1017mb 58f 77f
7:00am 0.7ft 3s 9 13 mph 1016.4mb 57f 78f
6:00am 0.7ft 3s 9
mph
1015.3mb 58f 75f
5:00am 0.3ft 2s 9 11 mph 1014.3mb 58f 77f
4:00am 0.3ft 2s 13 16 mph 1013.5mb 59f 75f
3:00am 0.3ft 2s 11 16 mph 1015mb 59f 78f
2:00am 0.7ft 2s 2 4 mph 1013.5mb 58f 74f
1:00am 0.3ft 2s 7 9 mph 1013.5mb 59f 82f
12:00am 0.3ft 6s 2 4 mph 1013.2mb 58f 75f
Mon 05/02 11:00pm 0.3ft 6s 7 9 mph 1013.1mb 60f 74f
10:00pm 0.3ft 4s 9 13 mph 1013.1mb 60f 72f
9:00pm 0.3ft 6s 9
mph
1012.9mb 59f 74f
8:00pm 0.3ft 6s 4
mph
1012.1mb 59f 77f
7:00pm 0.7ft 4s 7 9 mph 1011.6mb 59f 76f
6:00pm 0.3ft 5s 4
mph
1011.8mb 58f 75f
5:00pm 0.3ft 6s 4
mph
1012.1mb 60f 75f
4:00pm 0.3ft 6s  -  mph 1012.7mb 63f 73f
3:00pm 0.3ft 2s 2 7 mph 1013.4mb 62f 68f
2:00pm 0.3ft 6s 2
mph
1014.2mb 60f 67f
1:00pm 0.3ft 5s 4
mph
1014.7mb 60f 66f
12:00pm 0.3ft 6s 2
mph
1015.5mb 59f 64f
11:00am 0.3ft 3s 2
mph
1015.6mb 58f 65f
10:00am 0.3ft 5s 2
mph
1015.8mb 58f 66f
9:00am 0.3ft 2s 2
mph
1015.9mb 57f 68f
8:00am 0.3ft 4s 2 4 mph 1015.8mb 57f 66f